Time;durP1;ratioP1;P1;durP2;ratioP2;P2;SDS_P1;SDS_P2;PMS_P1;PMS_P2;Temp;Humidity;BMP_temperature;BMP_pressure;BME280_temperature;BME280_humidity;BME280_pressure;Samples;Min_cycle;Max_cycle;Signal;HPM_P1;HPM_P2
2023/09/18 00:01:39;;;;;;;43.40;38.95;;;15.90;99.90;;;;;;5025319;28;20147;-47
2023/09/18 00:04:05;;;;;;;41.22;37.03;;;16.00;99.90;;;;;;5028704;28;20086;-46
2023/09/18 00:06:32;;;;;;;38.83;35.08;;;16.00;99.90;;;;;;5027374;28;20072;-45
2023/09/18 00:08:58;;;;;;;41.15;37.03;;;16.00;99.90;;;;;;5025082;28;20064;-46
2023/09/18 00:11:24;;;;;;;40.80;36.90;;;16.00;99.90;;;;;;5042763;28;20053;-43
2023/09/18 00:13:49;;;;;;;41.10;36.92;;;16.00;99.90;;;;;;5042666;28;20791;-47
2023/09/18 00:16:15;;;;;;;41.92;37.83;;;16.10;99.90;;;;;;5024403;28;20106;-46
2023/09/18 00:18:42;;;;;;;43.47;38.83;;;16.10;99.90;;;;;;5042996;28;20049;-47
2023/09/18 00:21:10;;;;;;;40.67;36.40;;;16.10;99.90;;;;;;5024491;28;20447;-44
2023/09/18 00:23:36;;;;;;;44.33;39.63;;;16.10;99.90;;;;;;5034633;28;20068;-47
2023/09/18 00:26:01;;;;;;;41.17;36.92;;;16.10;99.90;;;;;;5024605;28;20048;-45
2023/09/18 00:28:27;;;;;;;42.00;37.85;;;16.10;99.90;;;;;;5024095;28;20514;-45
2023/09/18 00:30:53;;;;;;;40.10;36.03;;;16.10;99.90;;;;;;5042668;28;20076;-48
2023/09/18 00:33:19;;;;;;;42.33;37.97;;;16.10;99.90;;;;;;5024767;28;20124;-46
2023/09/18 00:35:46;;;;;;;41.58;37.28;;;16.20;99.90;;;;;;5024525;28;20298;-47
2023/09/18 00:38:12;;;;;;;41.33;37.05;;;16.10;99.90;;;;;;5042439;28;20037;-46
2023/09/18 00:40:38;;;;;;;41.90;37.53;;;16.10;99.90;;;;;;5007496;28;20095;-46
2023/09/18 00:43:03;;;;;;;42.72;37.85;;;16.20;99.90;;;;;;5042490;28;20051;-47
2023/09/18 00:45:29;;;;;;;41.60;37.40;;;16.10;99.90;;;;;;5042338;28;20045;-46
2023/09/18 00:47:55;;;;;;;39.80;35.63;;;16.20;99.90;;;;;;5023922;28;20053;-45
2023/09/18 00:50:21;;;;;;;43.22;38.72;;;16.10;99.90;;;;;;5023731;28;20374;-46
2023/09/18 00:52:48;;;;;;;40.22;36.13;;;16.20;99.90;;;;;;5023923;28;20044;-45
2023/09/18 00:55:14;;;;;;;40.45;36.25;;;16.10;99.90;;;;;;5041258;28;20072;-47
2023/09/18 00:57:42;;;;;;;41.10;36.88;;;16.20;99.90;;;;;;5041672;28;20532;-43
2023/09/18 01:00:08;;;;;;;38.83;34.88;;;16.10;99.90;;;;;;5041453;28;20154;-43
2023/09/18 01:02:34;;;;;;;41.47;35.42;;;16.10;99.90;;;;;;5041836;28;20139;-46
2023/09/18 01:05:00;;;;;;;37.63;33.80;;;16.10;99.90;;;;;;5048846;28;20904;-44
2023/09/18 01:07:28;;;;;;;38.53;34.53;;;16.10;99.90;;;;;;5041911;28;20383;-43
2023/09/18 01:09:54;;;;;;;37.63;33.55;;;16.00;99.90;;;;;;5041698;28;20082;-47
2023/09/18 01:12:33;;;;;;;37.20;33.53;;;16.10;99.90;;;;;;5035307;28;20041;-46
2023/09/18 01:15:15;;;;;;;40.53;35.25;;;16.10;99.90;;;;;;5028820;28;20049;-45
2023/09/18 01:17:41;;;;;;;38.42;34.42;;;16.00;99.90;;;;;;5023149;28;20154;-46
2023/09/18 01:20:11;;;;;;;37.58;33.55;;;15.90;99.90;;;;;;5023372;28;20599;-44
2023/09/18 01:22:37;;;;;;;37.00;33.17;;;16.00;99.90;;;;;;5023377;28;20049;-43
2023/09/18 01:25:03;;;;;;;32.95;29.77;;;15.90;99.90;;;;;;5041232;28;20052;-44
2023/09/18 01:27:29;;;;;;;35.13;31.70;;;15.90;99.90;;;;;;5040901;28;20036;-47
2023/09/18 01:29:54;;;;;;;31.33;28.23;;;15.80;99.90;;;;;;5041772;28;20416;-47
2023/09/18 01:32:24;;;;;;;33.95;30.65;;;15.70;99.90;;;;;;5023431;28;20033;-45
2023/09/18 01:34:53;;;;;;;36.35;32.58;;;15.70;99.90;;;;;;4998677;28;20057;-46
2023/09/18 01:37:22;;;;;;;40.40;35.58;;;15.70;99.90;;;;;;5038050;28;20045;-44
2023/09/18 01:39:50;;;;;;;39.33;35.35;;;15.60;99.90;;;;;;5041181;28;20040;-45
2023/09/18 01:42:16;;;;;;;37.85;33.85;;;15.70;99.90;;;;;;5041126;28;20864;-43
2023/09/18 01:44:42;;;;;;;36.50;32.67;;;15.60;99.90;;;;;;5023491;28;20371;-43
2023/09/18 01:47:11;;;;;;;35.25;31.98;;;15.60;99.90;;;;;;5023279;28;20044;-47
2023/09/18 01:49:38;;;;;;;34.15;30.85;;;15.50;99.90;;;;;;5005916;28;20048;-44
2023/09/18 01:52:05;;;;;;;35.13;31.73;;;15.70;99.90;;;;;;5023177;28;20190;-45
2023/09/18 01:54:31;;;;;;;40.67;36.35;;;15.60;99.90;;;;;;5023099;28;20416;-44
2023/09/18 01:56:57;;;;;;;40.45;36.25;;;15.80;99.90;;;;;;5041389;28;20067;-45
2023/09/18 01:59:23;;;;;;;41.05;36.70;;;15.80;99.90;;;;;;5040824;28;20374;-46
2023/09/18 02:01:50;;;;;;;40.67;36.35;;;15.90;99.90;;;;;;5040307;28;20044;-44
2023/09/18 02:04:16;;;;;;;40.97;37.00;;;16.00;99.90;;;;;;5026669;28;20078;-45
2023/09/18 02:06:42;;;;;;;41.63;37.58;;;16.00;99.90;;;;;;5043772;28;20033;-45
2023/09/18 02:09:08;;;;;;;45.17;39.97;;;16.10;99.90;;;;;;5025619;28;20138;-44
2023/09/18 02:11:40;;;;;;;40.13;35.83;;;16.20;99.90;;;;;;5044518;28;20140;-44
2023/09/18 02:14:06;;;;;;;41.25;36.85;;;16.20;99.90;;;;;;5045238;28;20437;-46
2023/09/18 02:16:43;;;;;;;41.58;37.28;;;16.20;99.90;;;;;;5026989;28;20332;-44
2023/09/18 02:19:10;;;;;;;41.55;37.30;;;16.30;99.90;;;;;;5026603;28;20127;-43
2023/09/18 02:21:36;;;;;;;40.75;36.83;;;16.30;99.90;;;;;;5045612;28;20055;-48
2023/09/18 02:24:02;;;;;;;39.15;35.28;;;16.30;99.90;;;;;;5045326;28;20148;-44
2023/09/18 02:26:27;;;;;;;41.60;37.33;;;16.30;99.90;;;;;;5027357;28;20515;-44
2023/09/18 02:28:54;;;;;;;40.85;36.88;;;16.30;99.90;;;;;;5044697;28;20480;-44
2023/09/18 02:31:20;;;;;;;39.58;35.75;;;16.40;99.90;;;;;;5027085;28;20304;-45
2023/09/18 02:33:47;;;;;;;39.70;35.63;;;16.30;99.90;;;;;;5044467;28;20041;-43
2023/09/18 02:36:13;;;;;;;40.28;36.13;;;16.40;99.90;;;;;;5027107;28;20052;-44
2023/09/18 02:38:39;;;;;;;40.08;35.88;;;16.40;99.90;;;;;;5044317;28;20044;-46
2023/09/18 02:41:04;;;;;;;41.78;37.30;;;16.40;99.90;;;;;;5044675;28;20041;-44
2023/09/18 02:43:30;;;;;;;39.95;35.95;;;16.50;99.90;;;;;;5026640;28;20140;-48
2023/09/18 02:45:56;;;;;;;42.75;38.40;;;16.50;99.90;;;;;;5044631;28;20092;-46
2023/09/18 02:48:22;;;;;;;41.17;36.85;;;16.60;99.90;;;;;;5025673;28;20380;-46
2023/09/18 02:50:47;;;;;;;38.65;35.05;;;16.60;99.90;;;;;;5044266;28;20037;-45
2023/09/18 02:53:21;;;;;;;40.88;36.65;;;16.70;99.90;;;;;;5044450;28;20053;-46
2023/09/18 02:55:48;;;;;;;41.50;37.38;;;16.70;99.90;;;;;;5035333;28;20048;-44
2023/09/18 02:58:14;;;;;;;40.47;36.55;;;16.70;99.90;;;;;;5044010;28;20052;-45
2023/09/18 03:00:44;;;;;;;42.03;37.95;;;16.70;99.90;;;;;;5043902;28;20487;-44
2023/09/18 03:03:10;;;;;;;41.22;37.15;;;16.70;99.90;;;;;;5044522;28;20431;-45
2023/09/18 03:05:36;;;;;;;38.72;34.88;;;16.70;99.90;;;;;;5010166;28;20056;-43
2023/09/18 03:08:02;;;;;;;39.80;35.95;;;16.70;99.90;;;;;;5043768;28;20123;-45
2023/09/18 03:10:32;;;;;;;39.70;35.95;;;16.80;99.90;;;;;;5043624;28;20057;-45
2023/09/18 03:12:57;;;;;;;39.95;36.10;;;16.80;99.90;;;;;;5044472;28;20044;-45
2023/09/18 03:15:23;;;;;;;40.28;36.17;;;16.80;99.90;;;;;;5026145;28;20047;-44
2023/09/18 03:17:50;;;;;;;42.58;38.15;;;16.70;99.90;;;;;;5032078;28;20044;-45
2023/09/18 03:20:16;;;;;;;41.85;37.75;;;16.80;99.90;;;;;;5043476;28;20048;-45
2023/09/18 03:22:42;;;;;;;42.63;37.92;;;16.80;99.90;;;;;;5043996;28;20041;-47
2023/09/18 03:25:08;;;;;;;41.13;37.15;;;16.80;99.90;;;;;;5043908;28;20268;-43
2023/09/18 03:27:33;;;;;;;41.53;37.40;;;16.80;99.90;;;;;;5025396;28;20053;-43
2023/09/18 03:29:59;;;;;;;41.88;37.85;;;16.80;99.90;;;;;;5043291;28;20040;-44
2023/09/18 03:32:25;;;;;;;39.25;35.17;;;16.90;99.90;;;;;;5043895;28;20568;-44
2023/09/18 03:34:51;;;;;;;40.50;36.38;;;16.90;99.90;;;;;;5025436;28;20075;-44
2023/09/18 03:37:17;;;;;;;44.72;39.97;;;16.90;99.90;;;;;;5043287;28;20033;-44
2023/09/18 03:39:42;;;;;;;42.63;37.55;;;16.90;99.90;;;;;;5043539;28;20052;-44
2023/09/18 03:42:08;;;;;;;40.83;36.90;;;16.90;99.90;;;;;;5043553;28;20037;-43
2023/09/18 03:44:33;;;;;;;39.67;35.70;;;16.90;99.90;;;;;;5043717;28;20518;-44
2023/09/18 03:46:59;;;;;;;41.78;37.40;;;16.90;99.90;;;;;;5043608;28;20392;-47
2023/09/18 03:49:25;;;;;;;40.47;36.35;;;17.00;99.90;;;;;;5024597;28;20096;-45
2023/09/18 03:51:50;;;;;;;41.83;37.75;;;16.90;99.90;;;;;;5043627;28;20452;-44
2023/09/18 03:54:16;;;;;;;40.50;36.47;;;17.10;99.90;;;;;;5043350;28;20049;-47
2023/09/18 03:56:41;;;;;;;40.17;36.25;;;17.10;99.90;;;;;;5025724;28;20400;-44
2023/09/18 03:59:07;;;;;;;40.65;36.40;;;17.00;99.90;;;;;;5024377;28;20044;-46
2023/09/18 04:01:32;;;;;;;40.17;36.28;;;17.10;99.90;;;;;;5042820;28;20041;-46
2023/09/18 04:03:58;;;;;;;40.55;36.45;;;17.10;99.90;;;;;;5046112;28;20594;-47
2023/09/18 04:06:24;;;;;;;39.33;35.15;;;17.10;99.90;;;;;;5043175;28;20119;-44
2023/09/18 04:08:50;;;;;;;38.78;34.88;;;17.10;99.90;;;;;;5023852;28;20041;-44
2023/09/18 04:11:17;;;;;;;36.47;32.92;;;17.20;99.90;;;;;;5024550;28;20172;-45
2023/09/18 04:13:42;;;;;;;36.10;32.55;;;17.20;99.90;;;;;;5042355;28;20488;-43
2023/09/18 04:16:08;;;;;;;36.70;33.05;;;17.20;99.90;;;;;;5024584;28;20083;-44
2023/09/18 04:18:33;;;;;;;35.58;32.00;;;17.20;99.90;;;;;;5024217;28;20124;-45
2023/09/18 04:20:59;;;;;;;36.38;32.92;;;17.30;99.90;;;;;;5008140;28;20415;-43
2023/09/18 04:23:26;;;;;;;33.83;30.63;;;17.20;99.90;;;;;;5042640;28;20159;-44
2023/09/18 04:25:54;;;;;;;37.15;33.15;;;17.20;99.90;;;;;;5008067;28;20044;-46
2023/09/18 04:28:20;;;;;;;34.85;31.42;;;17.30;99.90;;;;;;5042247;28;20095;-44
2023/09/18 04:30:46;;;;;;;36.40;32.70;;;17.20;99.90;;;;;;5042322;28;20107;-43
2023/09/18 04:33:14;;;;;;;32.63;29.40;;;17.30;99.90;;;;;;5042752;28;20488;-47
2023/09/18 04:35:40;;;;;;;33.70;30.10;;;17.20;99.90;;;;;;5042513;28;20118;-44
2023/09/18 04:38:10;;;;;;;36.38;32.88;;;17.20;99.90;;;;;;5024302;28;20091;-45
2023/09/18 04:40:36;;;;;;;36.17;32.55;;;17.20;99.90;;;;;;5042098;28;20484;-45
2023/09/18 04:43:04;;;;;;;36.65;32.67;;;17.20;99.90;;;;;;5042513;28;20045;-46
2023/09/18 04:45:30;;;;;;;34.30;29.13;;;17.10;99.90;;;;;;5042684;28;20080;-44
2023/09/18 04:47:56;;;;;;;34.03;30.27;;;17.10;99.90;;;;;;5007601;28;20087;-44
2023/09/18 04:50:22;;;;;;;35.25;31.80;;;17.10;99.90;;;;;;5023732;28;20055;-44
2023/09/18 04:52:50;;;;;;;36.45;31.30;;;17.20;99.90;;;;;;5042094;28;20033;-43
2023/09/18 04:55:16;;;;;;;31.92;28.20;;;17.10;99.90;;;;;;5042349;28;20044;-44
2023/09/18 04:57:42;;;;;;;31.88;28.77;;;17.20;99.90;;;;;;5042018;28;20063;-45
2023/09/18 05:00:08;;;;;;;35.17;31.65;;;17.20;99.90;;;;;;5041804;28;20072;-43
2023/09/18 05:02:34;;;;;;;31.77;28.30;;;17.10;99.90;;;;;;5024505;28;20556;-43
2023/09/18 05:05:01;;;;;;;29.92;27.00;;;17.20;99.90;;;;;;5049170;28;20045;-43
2023/09/18 05:07:26;;;;;;;34.67;31.08;;;17.10;99.90;;;;;;5042405;28;20130;-43
2023/09/18 05:09:52;;;;;;;33.47;29.83;;;17.20;99.90;;;;;;5020185;28;20243;-45
2023/09/18 05:12:18;;;;;;;32.33;28.88;;;17.10;99.90;;;;;;5020680;28;20037;-43
2023/09/18 05:14:44;;;;;;;32.95;29.30;;;17.20;99.90;;;;;;5022452;28;20033;-46
2023/09/18 05:17:17;;;;;;;30.83;27.95;;;17.10;99.90;;;;;;5021770;28;20038;-44
2023/09/18 05:19:43;;;;;;;;;;;17.20;99.90;;;;;;5022010;28;20104;-45
2023/09/18 05:22:12;;;;;;;30.05;27.00;;;17.20;99.90;;;;;;5020226;28;20347;-46
2023/09/18 05:24:40;;;;;;;30.35;27.35;;;17.10;99.90;;;;;;5021935;28;20587;-44
2023/09/18 05:27:07;;;;;;;29.40;26.35;;;17.10;99.90;;;;;;5021592;28;20045;-44
2023/09/18 05:29:33;;;;;;;28.73;25.83;;;17.10;99.90;;;;;;5021551;28;20132;-45
2023/09/18 05:31:59;;;;;;;28.95;25.73;;;17.20;99.90;;;;;;5020758;28;20601;-43
2023/09/18 05:34:24;;;;;;;27.55;24.60;;;17.20;99.90;;;;;;5020061;28;20064;-45
2023/09/18 05:36:50;;;;;;;28.17;25.23;;;17.20;99.90;;;;;;5021462;28;20048;-45
2023/09/18 05:39:16;;;;;;;25.05;22.55;;;17.30;99.90;;;;;;5020756;28;20038;-46
2023/09/18 05:41:42;;;;;;;27.52;24.13;;;17.30;99.90;;;;;;5021755;28;20069;-47
2023/09/18 05:44:09;;;;;;;27.67;22.90;;;17.40;99.90;;;;;;5020031;28;20171;-44
2023/09/18 05:46:35;;;;;;;26.58;23.77;;;17.50;99.90;;;;;;5021850;28;20053;-43
2023/09/18 05:49:02;;;;;;;25.65;22.85;;;17.50;99.90;;;;;;5006408;28;20045;-46
2023/09/18 05:51:27;;;;;;;25.75;23.02;;;17.50;99.90;;;;;;5021715;28;20529;-45
2023/09/18 05:53:53;;;;;;;26.30;23.63;;;17.50;99.90;;;;;;5021984;28;20057;-44
2023/09/18 05:56:19;;;;;;;30.77;23.42;;;17.60;99.90;;;;;;5026128;28;20066;-44
2023/09/18 05:58:44;;;;;;;26.58;23.75;;;17.70;99.90;;;;;;5020953;28;20149;-45
2023/09/18 06:01:10;;;;;;;30.10;25.88;;;17.70;99.90;;;;;;5021266;28;20388;-45
2023/09/18 06:03:36;;;;;;;26.67;23.85;;;17.80;99.90;;;;;;5020086;28;20068;-43
2023/09/18 06:06:02;;;;;;;28.60;25.58;;;17.70;99.90;;;;;;5026979;28;20047;-47
2023/09/18 06:08:30;;;;;;;30.45;25.55;;;17.80;99.90;;;;;;5020768;28;20073;-44
2023/09/18 06:10:56;;;;;;;28.80;25.80;;;17.80;99.90;;;;;;5040465;28;20439;-44
2023/09/18 06:13:23;;;;;;;30.35;26.65;;;17.70;99.90;;;;;;5039998;28;20044;-44
2023/09/18 06:15:50;;;;;;;30.20;26.92;;;17.80;99.90;;;;;;5038844;28;20960;-46
2023/09/18 06:18:16;;;;;;;29.13;26.05;;;17.80;99.90;;;;;;5021723;28;20048;-46
2023/09/18 06:20:43;;;;;;;35.95;29.35;;;17.90;99.90;;;;;;5040145;28;20045;-43
2023/09/18 06:23:09;;;;;;;37.67;30.48;;;17.90;99.90;;;;;;5042640;28;20087;-44
2023/09/18 06:25:34;;;;;;;34.90;31.27;;;17.90;99.90;;;;;;5050924;28;20128;-43
2023/09/18 06:28:02;;;;;;;38.78;32.20;;;17.90;99.90;;;;;;5046706;28;20326;-45
2023/09/18 06:30:30;;;;;;;36.58;32.85;;;17.80;99.90;;;;;;5049019;28;20056;-43
2023/09/18 06:32:56;;;;;;;37.03;33.15;;;17.80;99.90;;;;;;5046184;28;20376;-44
2023/09/18 06:35:22;;;;;;;36.40;32.53;;;17.90;99.90;;;;;;5030796;28;20078;-42
2023/09/18 06:37:48;;;;;;;34.63;30.88;;;17.90;99.90;;;;;;5052319;28;20063;-44
2023/09/18 06:40:16;;;;;;;57.60;37.78;;;17.90;99.90;;;;;;5047117;28;20483;-46
2023/09/18 06:42:42;;;;;;;89.05;43.80;;;17.80;99.90;;;;;;5049560;28;20122;-43
2023/09/18 06:45:08;;;;;;;50.00;36.33;;;17.90;99.90;;;;;;5048840;28;20041;-43
2023/09/18 06:47:34;;;;;;;52.80;38.00;;;17.90;99.90;;;;;;5049064;28;20495;-43
2023/09/18 06:50:00;;;;;;;48.65;36.92;;;17.90;99.90;;;;;;5050817;28;20041;-43
2023/09/18 06:52:27;;;;;;;42.85;34.00;;;17.80;99.90;;;;;;5049432;28;20056;-43
2023/09/18 06:54:53;;;;;;;37.10;30.77;;;17.80;99.90;;;;;;5052240;28;20056;-43
2023/09/18 06:57:21;;;;;;;31.80;28.40;;;17.80;99.90;;;;;;5055058;28;20464;-47
2023/09/18 06:59:47;;;;;;;43.35;31.83;;;17.70;99.90;;;;;;5020076;28;20052;-46
2023/09/18 07:02:14;;;;;;;33.97;30.38;;;17.70;99.90;;;;;;5036243;28;20450;-43
2023/09/18 07:04:44;;;;;;;46.22;35.67;;;17.80;99.90;;;;;;5053816;28;20059;-46
2023/09/18 07:07:14;;;;;;;46.72;35.38;;;17.80;99.90;;;;;;5052286;28;20517;-44
2023/09/18 07:09:43;;;;;;;42.90;35.22;;;17.70;99.90;;;;;;5032572;28;20065;-44
2023/09/18 07:12:09;;;;;;;55.67;38.05;;;17.70;99.90;;;;;;5016191;28;20103;-44
2023/09/18 07:14:35;;;;;;;52.55;36.20;;;17.80;99.90;;;;;;5043667;28;20527;-44
2023/09/18 07:17:02;;;;;;;34.75;30.95;;;17.80;99.90;;;;;;5042607;28;20211;-43
2023/09/18 07:19:28;;;;;;;46.95;35.72;;;17.80;99.90;;;;;;5025588;28;20068;-46
2023/09/18 07:21:53;;;;;;;50.78;35.45;;;17.80;99.90;;;;;;5042869;28;20496;-44
2023/09/18 07:24:20;;;;;;;41.63;32.53;;;17.80;99.90;;;;;;5042928;28;20463;-45
2023/09/18 07:26:47;;;;;;;38.33;31.48;;;17.80;99.90;;;;;;5045209;28;20120;-44
2023/09/18 07:29:14;;;;;;;37.15;29.00;;;17.90;99.90;;;;;;5026096;28;20044;-45
2023/09/18 07:31:41;;;;;;;37.05;29.95;;;17.70;99.90;;;;;;5022628;28;20526;-44
2023/09/18 07:34:06;;;;;;;33.58;27.52;;;17.70;99.90;;;;;;5006766;28;20053;-43
2023/09/18 07:36:32;;;;;;;39.50;29.83;;;17.80;99.90;;;;;;5025874;28;20044;-43
2023/09/18 07:38:58;;;;;;;35.22;27.77;;;17.80;99.90;;;;;;5042872;28;20069;-45
2023/09/18 07:41:25;;;;;;;35.53;29.35;;;17.70;99.90;;;;;;5025553;28;20049;-47
2023/09/18 07:43:50;;;;;;;30.88;25.27;;;17.70;99.90;;;;;;5041926;28;20087;-44
2023/09/18 07:46:16;;;;;;;30.00;24.45;;;17.90;99.90;;;;;;5042499;28;20123;-45
2023/09/18 07:48:42;;;;;;;34.42;25.80;;;17.90;99.90;;;;;;5007514;28;20049;-47
2023/09/18 07:51:11;;;;;;;37.22;26.52;;;17.80;99.90;;;;;;5042667;28;20550;-44
2023/09/18 07:53:37;;;;;;;35.30;23.58;;;17.80;99.90;;;;;;5008283;28;20487;-44
2023/09/18 07:56:04;;;;;;;29.60;22.45;;;17.90;99.90;;;;;;5043526;28;20037;-47
2023/09/18 07:58:30;;;;;;;26.45;18.98;;;17.80;99.90;;;;;;5042750;28;20049;-44
2023/09/18 08:00:57;;;;;;;26.55;17.85;;;17.80;99.90;;;;;;5043470;28;20128;-45
2023/09/18 08:03:24;;;;;;;19.10;15.93;;;18.00;99.90;;;;;;5042876;28;20052;-47
2023/09/18 08:05:52;;;;;;;25.33;17.23;;;17.90;99.90;;;;;;5050767;28;20494;-45
2023/09/18 08:08:20;;;;;;;28.10;19.23;;;18.00;99.90;;;;;;5024351;28;20445;-45
2023/09/18 08:10:46;;;;;;;22.90;18.88;;;18.00;99.90;;;;;;5042542;28;20060;-45
2023/09/18 08:13:12;;;;;;;24.40;19.23;;;18.00;99.90;;;;;;5044262;28;20040;-44
2023/09/18 08:15:38;;;;;;;21.42;18.88;;;17.90;99.90;;;;;;5018509;28;20081;-44
2023/09/18 08:18:04;;;;;;;27.08;21.40;;;18.10;99.90;;;;;;5025585;28;20053;-44
2023/09/18 08:20:30;;;;;;;25.20;20.95;;;18.00;99.90;;;;;;5041818;28;20052;-45
2023/09/18 08:22:56;;;;;;;33.80;23.50;;;18.20;99.90;;;;;;5024521;28;20056;-48
2023/09/18 08:25:22;;;;;;;27.65;23.33;;;18.10;99.90;;;;;;5043154;28;20045;-44
2023/09/18 08:27:48;;;;;;;24.92;22.23;;;18.30;99.90;;;;;;5041968;28;20040;-43
2023/09/18 08:30:14;;;;;;;31.17;24.08;;;18.20;99.90;;;;;;5023043;28;20049;-46
2023/09/18 08:32:41;;;;;;;27.17;22.38;;;18.50;99.90;;;;;;5042264;28;20045;-44
2023/09/18 08:35:07;;;;;;;29.17;23.33;;;18.60;99.90;;;;;;5024661;28;20360;-44
2023/09/18 08:37:33;;;;;;;23.83;20.02;;;18.60;99.90;;;;;;5024298;28;20067;-47
2023/09/18 08:40:00;;;;;;;26.02;21.20;;;18.60;99.90;;;;;;5024118;28;20551;-45
2023/09/18 08:42:33;;;;;;;24.45;19.98;;;18.50;99.90;;;;;;5042545;28;20595;-44
2023/09/18 08:45:01;;;;;;;22.65;20.15;;;18.60;99.90;;;;;;5042211;28;20037;-44
2023/09/18 08:47:27;;;;;;;28.90;20.80;;;18.70;99.90;;;;;;5042210;28;20049;-45
2023/09/18 08:49:55;;;;;;;22.05;19.25;;;18.70;99.90;;;;;;5041307;28;20044;-46
2023/09/18 08:52:22;;;;;;;22.40;18.30;;;18.80;99.90;;;;;;5023729;28;20140;-44
2023/09/18 08:54:48;;;;;;;21.48;18.13;;;18.70;99.90;;;;;;5020748;28;20424;-44
2023/09/18 08:57:14;;;;;;;20.80;17.48;;;18.70;99.90;;;;;;5023144;28;20152;-47
2023/09/18 08:59:41;;;;;;;20.73;17.42;;;18.70;99.90;;;;;;5022999;28;20043;-47
2023/09/18 09:02:11;;;;;;;22.75;16.55;;;18.70;99.90;;;;;;5019208;28;20075;-44
2023/09/18 09:04:37;;;;;;;18.55;16.40;;;18.60;99.90;;;;;;5043080;28;20037;-44
2023/09/18 09:07:03;;;;;;;19.20;15.85;;;18.60;99.90;;;;;;5006929;28;20481;-46
2023/09/18 09:09:30;;;;;;;23.58;17.27;;;18.60;99.90;;;;;;5006585;28;20313;-47
2023/09/18 09:11:56;;;;;;;23.02;18.65;;;18.60;99.90;;;;;;5024345;28;20487;-44
2023/09/18 09:14:27;;;;;;;24.67;19.00;;;18.90;99.90;;;;;;5024016;28;20037;-43
2023/09/18 09:16:54;;;;;;;21.45;17.05;;;18.90;99.90;;;;;;5040018;28;20548;-44
2023/09/18 09:19:29;;;;;;;21.67;18.05;;;19.00;99.90;;;;;;5041887;28;20502;-44
2023/09/18 09:21:57;;;;;;;22.08;18.02;;;19.00;99.90;;;;;;5024282;28;20068;-44
2023/09/18 09:24:43;;;;;;;19.33;16.90;;;19.00;99.90;;;;;;5041731;28;20309;-44
2023/09/18 09:27:10;;;;;;;18.45;16.55;;;19.20;99.90;;;;;;5023169;28;20053;-44
2023/09/18 09:29:36;;;;;;;20.38;18.17;;;19.40;99.90;;;;;;5041228;28;20290;-47
2023/09/18 09:32:16;;;;;;;20.67;18.67;;;19.70;99.90;;;;;;5023617;28;20053;-46
2023/09/18 09:34:43;;;;;;;20.67;18.77;;;19.70;99.90;;;;;;5021000;28;20115;-43
2023/09/18 09:37:10;;;;;;;20.65;18.65;;;19.80;99.90;;;;;;5040703;28;20289;-44
2023/09/18 09:39:56;;;;;;;21.33;19.13;;;19.90;99.90;;;;;;5040704;28;20041;-47
2023/09/18 09:42:24;;;;;;;22.15;19.98;;;19.80;99.90;;;;;;5021259;28;20055;-44
2023/09/18 09:45:04;;;;;;;22.52;20.38;;;19.80;99.90;;;;;;5041453;28;20049;-44
2023/09/18 09:47:36;;;;;;;21.10;19.17;;;19.90;99.90;;;;;;5023145;28;20732;-44
2023/09/18 09:50:15;;;;;;;21.73;19.83;;;19.90;99.90;;;;;;5022850;28;20048;-45
2023/09/18 09:52:48;;;;;;;22.33;20.08;;;20.00;99.90;;;;;;5041677;28;20557;-47
2023/09/18 09:55:34;;;;;;;21.52;19.45;;;20.10;99.90;;;;;;5041240;28;20083;-47
2023/09/18 09:58:02;;;;;;;23.02;20.83;;;20.10;99.90;;;;;;5040833;28;20531;-43
2023/09/18 10:00:56;;;;;;;21.70;19.70;;;20.20;99.90;;;;;;5022889;28;20102;-45
2023/09/18 10:03:21;;;;;;;20.08;18.17;;;20.30;99.90;;;;;;5041625;28;20738;-44
2023/09/18 10:05:51;;;;;;;18.35;16.60;;;20.50;99.90;;;;;;5040859;28;20053;-44
2023/09/18 10:08:23;;;;;;;18.35;16.55;;;20.70;99.90;;;;;;5040738;28;20076;-44
2023/09/18 10:10:51;;;;;;;17.20;15.50;;;20.80;99.90;;;;;;5040986;28;20505;-45
2023/09/18 10:13:26;;;;;;;16.10;14.60;;;21.00;99.90;;;;;;5040547;28;20459;-43
2023/09/18 10:15:53;;;;;;;17.50;15.85;;;21.10;99.90;;;;;;5040789;28;20552;-44
2023/09/18 10:18:38;;;;;;;15.73;14.15;;;21.10;99.90;;;;;;5040047;28;20374;-44
2023/09/18 10:21:35;;;;;;;13.90;12.73;;;21.20;99.90;;;;;;5020256;28;20063;-44
2023/09/18 10:24:24;;;;;;;14.20;12.93;;;21.10;99.90;;;;;;5035419;28;20297;-43
2023/09/18 10:26:56;;;;;;;12.65;11.65;;;21.00;99.90;;;;;;5023764;28;20459;-44
2023/09/18 10:29:26;;;;;;;12.93;11.90;;;20.80;99.90;;;;;;5026370;28;20299;-46
2023/09/18 10:31:53;;;;;;;12.55;11.23;;;20.60;99.90;;;;;;5044501;28;20115;-44
2023/09/18 10:34:20;;;;;;;11.70;10.02;;;20.70;99.90;;;;;;5010898;28;20123;-44
2023/09/18 10:36:54;;;;;;;10.82;9.73;;;20.60;99.90;;;;;;5044383;28;20095;-45
2023/09/18 10:39:23;;;;;;;11.60;10.38;;;20.60;99.90;;;;;;5032322;28;20732;-44
2023/09/18 10:41:53;;;;;;;11.70;10.57;;;20.50;99.90;;;;;;5044161;28;20143;-43
2023/09/18 10:44:19;;;;;;;11.23;10.07;;;20.50;99.90;;;;;;5043694;28;20353;-44
2023/09/18 10:46:49;;;;;;;9.50;8.57;;;20.50;99.90;;;;;;5043955;28;20052;-48
2023/09/18 10:49:16;;;;;;;10.40;8.57;;;20.50;99.90;;;;;;5026077;28;20480;-47
2023/09/18 10:51:43;;;;;;;9.48;7.70;;;20.50;99.90;;;;;;5044805;28;20045;-47
2023/09/18 10:54:10;;;;;;;9.25;8.35;;;20.60;99.90;;;;;;5026190;28;20056;-45
2023/09/18 10:56:36;;;;;;;7.68;6.97;;;20.70;99.90;;;;;;5043695;28;20049;-45
2023/09/18 10:59:03;;;;;;;8.35;7.53;;;20.80;99.90;;;;;;5043796;28;20505;-44
2023/09/18 11:01:32;;;;;;;8.55;7.53;;;20.80;99.90;;;;;;5044154;28;20056;-44
2023/09/18 11:04:10;;;;;;;7.78;6.78;;;20.80;99.90;;;;;;5028640;28;20446;-45
2023/09/18 11:06:53;;;;;;;7.28;6.53;;;20.80;99.90;;;;;;5041181;28;20073;-47
2023/09/18 11:09:21;;;;;;;6.65;5.88;;;21.10;99.90;;;;;;5025377;28;20110;-44
2023/09/18 11:12:12;;;;;;;9.35;6.57;;;21.20;99.90;;;;;;5038796;28;20048;-45
2023/09/18 11:14:57;;;;;;;7.15;5.88;;;21.40;99.90;;;;;;5044273;28;20044;-45
2023/09/18 11:17:40;;;;;;;8.75;6.05;;;21.40;99.90;;;;;;5044619;28;20052;-44
2023/09/18 11:20:14;;;;;;;6.07;5.40;;;21.50;99.90;;;;;;5015320;28;20112;-46
2023/09/18 11:22:57;;;;;;;8.02;6.03;;;21.60;99.90;;;;;;5026579;28;20069;-45
2023/09/18 11:25:51;;;;;;;9.13;6.30;;;21.70;99.90;;;;;;5044672;28;20072;-44
2023/09/18 11:28:23;;;;;;;6.97;6.28;;;21.50;99.90;;;;;;4996935;28;20053;-45
2023/09/18 11:30:51;;;;;;;8.68;7.78;;;21.40;99.90;;;;;;5045261;28;20037;-44
2023/09/18 11:33:39;;;;;;;9.25;7.40;;;21.20;99.90;;;;;;5044803;28;20037;-47
2023/09/18 11:36:11;;;;;;;8.27;7.53;;;21.20;99.90;;;;;;5044639;28;20106;-44
2023/09/18 11:38:57;;;;;;;10.90;7.40;;;21.40;99.90;;;;;;5042959;28;20048;-44
2023/09/18 11:41:28;;;;;;;7.68;6.95;;;21.60;99.90;;;;;;5044288;28;20394;-44
2023/09/18 11:44:13;;;;;;;8.50;7.65;;;21.70;99.90;;;;;;5026087;28;20048;-44
2023/09/18 11:46:40;;;;;;;7.60;6.80;;;21.80;99.90;;;;;;5043667;28;20056;-44
2023/09/18 11:49:09;;;;;;;7.30;6.60;;;21.70;99.90;;;;;;5025951;28;20045;-48
2023/09/18 11:51:36;;;;;;;12.18;7.43;;;21.60;99.90;;;;;;5025942;28;20091;-45
2023/09/18 11:54:03;;;;;;;10.88;7.35;;;21.50;99.90;;;;;;5044003;28;20041;-47
2023/09/18 11:56:39;;;;;;;8.75;6.82;;;21.40;99.90;;;;;;5008613;28;20059;-45
2023/09/18 11:59:06;;;;;;;8.98;6.20;;;21.50;99.90;;;;;;5025333;28;20114;-44
2023/09/18 12:01:41;;;;;;;7.07;6.47;;;21.50;99.90;;;;;;5025345;28;20688;-46
2023/09/18 12:04:11;;;;;;;7.35;6.25;;;21.60;99.90;;;;;;5047079;28;20047;-44
2023/09/18 12:06:39;;;;;;;8.95;6.07;;;21.50;99.90;;;;;;5045607;28;20045;-45
2023/09/18 12:09:06;;;;;;;9.50;5.72;;;21.60;99.90;;;;;;5043169;28;20179;-44
2023/09/18 12:11:35;;;;;;;7.53;5.47;;;21.70;99.90;;;;;;5043644;28;20060;-44
2023/09/18 12:14:02;;;;;;;7.30;6.60;;;21.70;99.90;;;;;;5025023;28;20573;-45
2023/09/18 12:16:28;;;;;;;8.10;5.70;;;21.60;99.90;;;;;;5043075;28;21284;-45
2023/09/18 12:18:54;;;;;;;6.35;5.75;;;21.60;99.90;;;;;;5043007;28;20496;-48
2023/09/18 12:21:19;;;;;;;6.38;5.70;;;21.40;99.90;;;;;;5024890;28;20048;-42
2023/09/18 12:23:46;;;;;;;7.68;5.80;;;21.40;99.90;;;;;;5043346;28;20045;-48
2023/09/18 12:26:13;;;;;;;8.95;6.15;;;21.40;99.90;;;;;;5042746;28;20044;-47
2023/09/18 12:28:39;;;;;;;6.65;5.70;;;21.30;99.90;;;;;;5043031;28;20113;-47
2023/09/18 12:31:06;;;;;;;7.95;5.93;;;21.30;99.90;;;;;;5030305;28;20094;-45
2023/09/18 12:33:36;;;;;;;8.32;5.70;;;21.30;99.90;;;;;;5043227;28;20846;-46
2023/09/18 12:36:04;;;;;;;9.35;5.25;;;21.40;99.90;;;;;;5024853;28;20463;-45